createdAt,value
2022-10-01T00:02:07.515Z,77.05
2022-10-01T00:04:37.478Z,77.07
2022-10-01T00:07:09.828Z,76.44
2022-10-01T00:09:38.717Z,75.62
2022-10-01T00:12:06.350Z,75.16
2022-10-01T00:14:33.779Z,75.14
2022-10-01T00:17:01.442Z,77.49
2022-10-01T00:19:28.824Z,77.65
2022-10-01T00:21:56.102Z,77.31
2022-10-01T00:24:24.030Z,77.37
2022-10-01T00:26:51.917Z,76.45
2022-10-01T00:29:20.108Z,76.01
2022-10-01T00:31:48.115Z,76.17
2022-10-01T00:34:15.637Z,75.97
2022-10-01T00:36:43.362Z,76.56
2022-10-01T00:39:12.233Z,77.08
2022-10-01T00:41:40.552Z,75.85
2022-10-01T00:44:32.475Z,77.13
2022-10-01T00:47:20.384Z,76.77
2022-10-01T00:49:50.857Z,77.13
2022-10-01T00:52:25.020Z,77.00
2022-10-01T00:54:58.280Z,76.68
2022-10-01T00:57:27.697Z,77.45
2022-10-01T01:00:00.150Z,76.89
2022-10-01T01:02:27.869Z,77.30
2022-10-01T01:04:56.312Z,77.66
2022-10-01T01:07:24.183Z,77.88
2022-10-01T01:09:55.205Z,77.10
2022-10-01T01:13:02.047Z,77.16
2022-10-01T01:15:48.313Z,76.65
2022-10-01T01:18:31.926Z,74.03
2022-10-01T01:21:14.366Z,74.65
2022-10-01T01:23:54.251Z,76.33
2022-10-01T01:26:55.042Z,76.49
2022-10-01T01:29:53.004Z,75.52
2022-10-01T01:32:32.965Z,77.31
2022-10-01T01:35:04.712Z,77.76
2022-10-01T01:37:38.147Z,77.85
2022-10-01T01:40:12.437Z,76.92
2022-10-01T01:42:44.219Z,77.82
2022-10-01T01:45:17.788Z,79.34
2022-10-01T01:47:46.715Z,78.96
2022-10-01T01:50:16.810Z,78.75
2022-10-01T01:52:44.201Z,78.98
2022-10-01T01:55:11.894Z,79.02
2022-10-01T01:57:44.300Z,79.04
2022-10-01T02:00:13.044Z,78.31
2022-10-01T02:02:47.079Z,77.95
2022-10-01T02:05:19.262Z,77.21
2022-10-01T02:08:03.770Z,76.79
2022-10-01T02:10:34.173Z,77.16
2022-10-01T02:13:35.290Z,76.96
2022-10-01T02:16:19.288Z,77.36
2022-10-01T02:18:57.786Z,77.60
2022-10-01T02:21:35.535Z,77.36
2022-10-01T02:24:31.882Z,77.30
2022-10-01T02:27:04.144Z,78.72
2022-10-01T02:29:34.912Z,79.07
2022-10-01T02:32:02.832Z,78.62
2022-10-01T02:34:31.863Z,78.76
2022-10-01T02:37:03.439Z,79.12
2022-10-01T02:39:34.742Z,78.85
2022-10-01T02:42:04.312Z,78.47
2022-10-01T02:44:38.274Z,78.79
2022-10-01T02:47:21.708Z,78.24
2022-10-01T02:49:51.204Z,79.04
2022-10-01T02:52:31.986Z,79.17
2022-10-01T02:55:07.744Z,79.78
2022-10-01T02:57:36.971Z,79.86
2022-10-01T03:00:11.407Z,77.38
2022-10-01T03:02:39.928Z,78.08
2022-10-01T03:05:08.303Z,79.85
2022-10-01T03:07:36.444Z,79.39
2022-10-01T03:10:05.987Z,78.00
2022-10-01T03:12:33.582Z,79.04
2022-10-01T03:15:01.359Z,80.35
2022-10-01T03:17:29.709Z,80.85
2022-10-01T03:19:58.088Z,81.30
2022-10-01T03:22:25.534Z,80.42
2022-10-01T03:24:54.097Z,79.45
2022-10-01T03:27:22.704Z,81.23
2022-10-01T03:29:50.410Z,82.18
2022-10-01T03:32:18.431Z,82.88
2022-10-01T03:34:46.974Z,82.46
2022-10-01T03:37:14.465Z,80.96
2022-10-01T03:39:43.282Z,81.71
2022-10-01T03:42:11.890Z,82.01
2022-10-01T03:44:39.744Z,81.98
2022-10-01T03:47:08.214Z,81.95
2022-10-01T03:49:38.162Z,81.56
2022-10-01T03:52:06.819Z,82.64
2022-10-01T03:54:34.680Z,82.50
2022-10-01T03:57:02.768Z,81.38
2022-10-01T03:59:30.127Z,82.29
2022-10-01T04:01:58.256Z,83.31
2022-10-01T04:04:26.726Z,83.70
2022-10-01T04:06:54.662Z,85.18
2022-10-01T04:09:25.631Z,80.70
2022-10-01T04:11:53.580Z,82.54
2022-10-01T04:14:21.049Z,82.97
2022-10-01T04:16:50.759Z,84.20
2022-10-01T04:19:19.697Z,85.05
2022-10-01T04:21:47.181Z,83.96
2022-10-01T04:24:14.648Z,84.56
2022-10-01T04:26:42.681Z,84.15
2022-10-01T04:29:10.100Z,82.96
2022-10-01T04:31:38.009Z,83.14
2022-10-01T04:34:07.208Z,82.28
2022-10-01T04:36:34.855Z,82.60
2022-10-01T04:39:03.020Z,82.77
2022-10-01T04:41:31.912Z,81.58
2022-10-01T04:44:00.862Z,83.01
2022-10-01T04:46:30.664Z,84.63
2022-10-01T04:48:58.842Z,83.30
2022-10-01T04:51:26.402Z,82.74
2022-10-01T04:53:54.065Z,82.83
2022-10-01T04:56:21.981Z,82.90
2022-10-01T04:58:49.498Z,82.96
2022-10-01T05:01:17.351Z,81.22
2022-10-01T05:03:45.614Z,83.40
2022-10-01T05:06:13.137Z,83.77
2022-10-01T05:08:41.340Z,83.64
2022-10-01T05:11:10.514Z,83.38
2022-10-01T05:13:38.158Z,81.89
2022-10-01T05:16:06.166Z,80.77
2022-10-01T05:18:35.579Z,80.98
2022-10-01T05:21:07.596Z,81.93
2022-10-01T05:23:35.346Z,81.44
2022-10-01T05:26:05.921Z,81.06
2022-10-01T05:28:34.737Z,81.25
2022-10-01T05:31:07.530Z,82.42
2022-10-01T05:33:35.255Z,83.00
2022-10-01T05:36:07.019Z,84.70
2022-10-01T05:38:37.434Z,86.17
2022-10-01T05:41:05.952Z,88.38
2022-10-01T05:43:33.479Z,88.20
2022-10-01T05:46:02.288Z,86.32
2022-10-01T05:48:37.269Z,86.88
2022-10-01T05:51:08.455Z,85.87
2022-10-01T05:53:37.900Z,85.43
2022-10-01T05:56:07.097Z,84.00
2022-10-01T05:58:34.963Z,84.89
2022-10-01T06:01:05.135Z,85.42
2022-10-01T06:03:33.476Z,87.03
2022-10-01T06:06:01.723Z,88.48
2022-10-01T06:08:29.473Z,89.37
2022-10-01T06:11:02.063Z,88.86
2022-10-01T06:13:29.838Z,89.56
2022-10-01T06:15:59.183Z,89.78
2022-10-01T06:18:27.532Z,90.10
2022-10-01T06:20:54.955Z,88.31
2022-10-01T06:23:23.664Z,87.39
2022-10-01T06:25:51.599Z,86.31
2022-10-01T06:28:19.466Z,86.05
2022-10-01T06:30:47.703Z,84.33
2022-10-01T06:33:17.337Z,83.38
2022-10-01T06:35:50.057Z,82.30
2022-10-01T06:38:20.300Z,80.37
2022-10-01T06:41:14.648Z,79.91
2022-10-01T06:43:42.462Z,80.20
2022-10-01T06:46:11.340Z,79.62
2022-10-01T06:48:38.722Z,77.74
2022-10-01T06:51:06.720Z,77.71
2022-10-01T06:53:34.716Z,76.12
2022-10-01T06:56:10.939Z,74.57
2022-10-01T06:58:38.773Z,73.75
2022-10-01T07:01:06.292Z,72.71
2022-10-01T07:03:34.331Z,70.20
2022-10-01T07:06:05.504Z,70.03
2022-10-01T07:08:33.562Z,69.38
2022-10-01T07:11:03.320Z,66.17
2022-10-01T07:13:31.665Z,66.61
2022-10-01T07:15:59.353Z,66.38
2022-10-01T07:18:29.931Z,65.28
2022-10-01T07:20:58.095Z,64.60
2022-10-01T07:23:25.605Z,62.70
2022-10-01T07:25:53.797Z,61.65
2022-10-01T07:28:26.215Z,61.02
2022-10-01T07:31:04.025Z,59.26
2022-10-01T07:33:31.853Z,59.58
2022-10-01T07:36:04.662Z,58.67
2022-10-01T07:38:33.824Z,59.34
2022-10-01T07:41:03.142Z,59.64
2022-10-01T07:43:34.865Z,57.98
2022-10-01T07:46:03.719Z,59.84
2022-10-01T07:48:31.311Z,59.71
2022-10-01T07:50:58.970Z,60.60
2022-10-01T07:53:28.934Z,61.05
2022-10-01T07:55:57.008Z,61.35
2022-10-01T07:58:25.226Z,62.36
2022-10-01T08:00:58.908Z,62.16
2022-10-01T08:03:26.995Z,59.77
2022-10-01T08:05:54.859Z,59.81
2022-10-01T08:08:22.755Z,56.57
2022-10-01T08:10:50.801Z,57.17
2022-10-01T08:13:19.212Z,60.84
2022-10-01T08:15:53.697Z,60.16
2022-10-01T08:18:22.925Z,60.51
2022-10-01T08:20:50.799Z,60.57
2022-10-01T08:23:18.837Z,57.12
2022-10-01T08:25:48.151Z,57.52
2022-10-01T08:28:16.716Z,60.16
2022-10-01T08:30:44.213Z,56.45
2022-10-01T08:33:14.648Z,58.14
2022-10-01T08:35:43.867Z,57.39
2022-10-01T08:38:12.867Z,55.50
2022-10-01T08:40:48.063Z,59.19
2022-10-01T08:43:30.947Z,60.76
2022-10-01T08:46:06.277Z,64.27
2022-10-01T08:48:47.805Z,66.33
2022-10-01T08:51:35.470Z,65.62
2022-10-01T08:54:35.543Z,65.01
2022-10-01T08:57:06.802Z,68.05
2022-10-01T09:03:09.235Z,60.90
2022-10-01T09:05:55.855Z,60.90
2022-10-01T09:08:45.093Z,60.16
2022-10-01T09:11:54.142Z,59.76
2022-10-01T09:14:37.669Z,59.41
2022-10-01T09:17:42.004Z,61.77
2022-10-01T09:20:30.695Z,64.48
2022-10-01T09:23:12.707Z,63.04
2022-10-01T09:25:41.199Z,64.10
2022-10-01T09:28:21.742Z,64.25
2022-10-01T09:30:55.978Z,68.50
2022-10-01T09:33:30.988Z,68.02
2022-10-01T09:36:10.457Z,72.32
2022-10-01T09:38:48.567Z,70.71
2022-10-01T09:41:16.300Z,74.36
2022-10-01T09:43:44.583Z,72.97
2022-10-01T09:46:17.353Z,74.95
2022-10-01T09:48:56.850Z,72.92
2022-10-01T09:51:41.253Z,76.13
2022-10-01T09:54:19.559Z,80.06
2022-10-01T09:56:53.814Z,78.78
2022-10-01T09:59:27.584Z,81.28
2022-10-01T10:01:59.311Z,81.94
2022-10-01T10:04:27.908Z,81.33
2022-10-01T10:07:06.261Z,79.82
2022-10-01T10:09:36.025Z,80.53
2022-10-01T10:12:03.899Z,88.45
2022-10-01T10:14:35.770Z,87.72
2022-10-01T10:17:12.982Z,86.48
2022-10-01T10:19:41.498Z,85.70
2022-10-01T10:22:13.929Z,84.29
2022-10-01T10:24:41.692Z,79.57
2022-10-01T10:27:27.005Z,80.38
2022-10-01T10:30:15.005Z,79.06
2022-10-01T10:32:44.943Z,81.92
2022-10-01T10:35:17.412Z,81.86
2022-10-01T10:37:49.366Z,81.29
2022-10-01T10:40:28.462Z,83.40
2022-10-01T10:42:59.755Z,81.32
2022-10-01T10:45:39.046Z,79.84
2022-10-01T10:48:15.539Z,79.41
2022-10-01T10:50:45.719Z,80.29
2022-10-01T10:53:24.626Z,82.35
2022-10-01T10:56:01.292Z,82.51
2022-10-01T10:58:33.437Z,82.53
2022-10-01T11:01:16.528Z,82.06
2022-10-01T11:03:57.964Z,83.43
2022-10-01T11:06:25.639Z,83.98
2022-10-01T11:09:05.109Z,81.71
2022-10-01T11:12:00.318Z,82.69
2022-10-01T11:15:01.849Z,82.01
2022-10-01T11:18:09.633Z,86.43
2022-10-01T11:20:52.157Z,86.36
2022-10-01T11:23:57.123Z,85.23
2022-10-01T11:26:53.596Z,86.41
2022-10-01T11:29:48.353Z,87.43
2022-10-01T11:32:42.797Z,93.60
2022-10-01T11:35:34.556Z,88.87
2022-10-01T11:38:33.317Z,86.70
2022-10-01T11:41:20.039Z,81.89
2022-10-01T11:44:19.082Z,83.87
2022-10-01T11:46:46.544Z,85.03
2022-10-01T11:49:29.738Z,84.64
2022-10-01T11:52:23.780Z,89.20
2022-10-01T11:55:22.026Z,93.37
2022-10-01T11:58:16.003Z,94.89
2022-10-01T12:00:54.938Z,92.03
2022-10-01T12:03:25.629Z,89.44
2022-10-01T12:05:56.685Z,88.04
2022-10-01T12:08:30.503Z,85.92
2022-10-01T12:11:11.957Z,85.12
2022-10-01T12:13:45.669Z,79.39
2022-10-01T12:16:13.260Z,79.14
2022-10-01T12:18:51.956Z,77.73
2022-10-01T12:21:30.579Z,79.10
2022-10-01T12:24:05.640Z,75.61
2022-10-01T12:26:41.787Z,77.43
2022-10-01T12:29:36.523Z,79.50
2022-10-01T12:32:24.421Z,81.30
2022-10-01T12:35:26.363Z,82.49
2022-10-01T12:38:28.272Z,82.24
2022-10-01T12:41:11.319Z,78.58
2022-10-01T12:43:57.169Z,82.10
2022-10-01T12:46:53.332Z,82.52
2022-10-01T12:49:35.948Z,82.45
2022-10-01T12:52:16.019Z,80.81
2022-10-01T12:54:51.862Z,79.16
2022-10-01T12:57:40.741Z,76.37
2022-10-01T13:00:25.239Z,74.25
2022-10-01T13:03:18.847Z,73.66
2022-10-01T13:05:46.450Z,73.59
2022-10-01T13:08:17.503Z,70.80
2022-10-01T13:10:54.253Z,69.80
2022-10-01T13:13:26.506Z,72.17
2022-10-01T13:16:30.230Z,73.59
2022-10-01T13:19:08.484Z,73.84
2022-10-01T13:22:08.063Z,74.85
2022-10-01T13:25:01.533Z,75.34
2022-10-01T13:27:42.672Z,72.23
2022-10-01T13:30:22.503Z,73.06
2022-10-01T13:32:53.570Z,71.79
2022-10-01T13:35:21.664Z,71.51
2022-10-01T13:40:27.153Z,71.44
2022-10-01T13:43:00.203Z,72.99
2022-10-01T13:45:40.542Z,72.39
2022-10-01T13:48:11.452Z,73.35
2022-10-01T13:50:40.361Z,69.58
2022-10-01T13:53:21.042Z,68.73
2022-10-01T13:55:49.036Z,67.46
2022-10-01T13:58:31.718Z,71.05
2022-10-01T14:01:03.833Z,75.83
2022-10-01T14:03:36.811Z,77.69
2022-10-01T14:06:07.995Z,74.50
2022-10-01T14:09:01.203Z,71.95
2022-10-01T14:11:51.658Z,68.28
2022-10-01T14:14:52.002Z,66.99
2022-10-01T14:17:28.240Z,66.58
2022-10-01T14:19:57.718Z,64.06
2022-10-01T14:22:49.659Z,62.86
2022-10-01T14:25:39.474Z,63.30
2022-10-01T14:28:16.809Z,61.67
2022-10-01T14:31:13.299Z,64.86
2022-10-01T14:33:56.358Z,67.64
2022-10-01T14:36:35.506Z,67.61
2022-10-01T14:39:24.465Z,68.17
2022-10-01T14:41:55.223Z,68.13
2022-10-01T14:44:37.518Z,68.01
2022-10-01T14:47:20.747Z,66.40
2022-10-01T14:49:49.358Z,63.23
2022-10-01T14:52:20.422Z,63.42
2022-10-01T14:54:57.503Z,64.35
2022-10-01T14:57:28.718Z,63.52
2022-10-01T14:59:58.348Z,63.10
2022-10-01T15:02:27.961Z,61.79
2022-10-01T15:04:57.413Z,59.39
2022-10-01T15:07:32.879Z,58.94
2022-10-01T15:10:08.489Z,58.93
2022-10-01T15:12:41.635Z,59.27
2022-10-01T15:15:19.791Z,60.32
2022-10-01T15:17:48.605Z,63.84
2022-10-01T15:20:18.296Z,66.33
2022-10-01T15:22:49.370Z,67.89
2022-10-01T15:25:22.489Z,69.89
2022-10-01T15:27:50.426Z,71.84
2022-10-01T15:30:18.891Z,72.45
2022-10-01T15:32:51.220Z,72.38
2022-10-01T15:35:22.343Z,73.18
2022-10-01T15:37:52.556Z,74.32
2022-10-01T15:40:35.900Z,75.27
2022-10-01T15:43:15.028Z,75.42
2022-10-01T15:45:44.231Z,77.19
2022-10-01T15:48:30.482Z,77.44
2022-10-01T15:51:27.708Z,77.52
2022-10-01T15:54:09.366Z,77.69
2022-10-01T15:56:37.789Z,78.25
2022-10-01T15:59:25.828Z,78.00
2022-10-01T16:01:53.796Z,78.92
2022-10-01T16:04:21.904Z,78.82
2022-10-01T16:06:53.136Z,83.28
2022-10-01T16:09:24.073Z,82.44
2022-10-01T16:12:03.390Z,82.01
2022-10-01T16:14:41.112Z,81.96
2022-10-01T16:17:18.056Z,82.13
2022-10-01T16:19:55.076Z,82.25
2022-10-01T16:22:29.062Z,82.00
2022-10-01T16:25:01.749Z,83.10
2022-10-01T16:27:44.289Z,83.97
2022-10-01T16:30:23.152Z,82.35
2022-10-01T16:32:50.765Z,82.25
2022-10-01T16:35:26.031Z,82.32
2022-10-01T16:37:57.112Z,82.33
2022-10-01T16:40:33.890Z,83.75
2022-10-01T16:43:02.740Z,83.00
2022-10-01T16:45:36.904Z,83.13
2022-10-01T16:48:15.854Z,83.25
2022-10-01T16:50:46.645Z,83.83
2022-10-01T16:53:17.291Z,84.89
2022-10-01T16:55:46.432Z,83.21
2022-10-01T16:58:14.081Z,86.09
2022-10-01T17:00:42.171Z,87.70
2022-10-01T17:03:19.151Z,86.35
2022-10-01T17:05:47.262Z,87.10
2022-10-01T17:08:16.069Z,88.99
2022-10-01T17:10:58.590Z,87.79
2022-10-01T17:13:28.269Z,86.81
2022-10-01T17:15:56.459Z,85.93
2022-10-01T17:18:24.003Z,85.65
2022-10-01T17:20:51.997Z,86.23
2022-10-01T17:23:21.922Z,87.39
2022-10-01T17:25:50.141Z,86.39
2022-10-01T17:28:20.476Z,86.79
2022-10-01T17:30:49.454Z,85.56
2022-10-01T17:33:19.624Z,85.68
2022-10-01T17:35:54.898Z,87.28
2022-10-01T17:38:23.277Z,87.55
2022-10-01T17:40:56.449Z,89.03
2022-10-01T17:43:24.665Z,87.73
2022-10-01T17:46:01.177Z,87.37
2022-10-01T17:48:29.338Z,86.81
2022-10-01T17:51:03.721Z,85.19
2022-10-01T17:53:39.852Z,85.25
2022-10-01T17:56:14.755Z,83.76
2022-10-01T17:58:45.558Z,84.33
2022-10-01T18:01:17.263Z,84.25
2022-10-01T18:03:45.608Z,84.91
2022-10-01T18:06:16.419Z,84.61
2022-10-01T18:08:55.172Z,83.87
2022-10-01T18:11:26.587Z,84.85
2022-10-01T18:13:54.044Z,86.24
2022-10-01T18:16:22.743Z,85.14
2022-10-01T18:21:45.181Z,86.78
2022-10-01T18:24:13.443Z,86.41
2022-10-01T18:26:41.810Z,87.32
2022-10-01T18:29:15.554Z,88.77
2022-10-01T18:31:45.296Z,89.32
2022-10-01T18:34:39.035Z,88.94
2022-10-01T18:37:39.831Z,88.19
2022-10-01T18:40:40.023Z,86.10
2022-10-01T18:43:18.119Z,86.75
2022-10-01T18:46:23.032Z,87.59
2022-10-01T18:49:06.447Z,88.05
2022-10-01T18:52:01.428Z,87.61
2022-10-01T18:54:48.627Z,87.51
2022-10-01T18:57:50.843Z,87.08
2022-10-01T19:00:24.860Z,89.36
2022-10-01T19:03:01.401Z,89.36
2022-10-01T19:06:09.847Z,88.34
2022-10-01T19:09:03.108Z,88.35
2022-10-01T19:11:53.424Z,89.24
2022-10-01T19:15:25.785Z,89.77
2022-10-01T19:18:21.105Z,91.47
2022-10-01T19:21:02.876Z,91.43
2022-10-01T19:23:47.627Z,92.72
2022-10-01T19:26:29.094Z,93.56
2022-10-01T19:29:40.329Z,94.08
2022-10-01T19:32:12.722Z,95.73
2022-10-01T19:35:03.447Z,96.97
2022-10-01T19:37:41.388Z,96.29
2022-10-01T19:40:35.123Z,96.94
2022-10-01T19:43:21.772Z,96.16
2022-10-01T19:46:09.402Z,95.28
2022-10-01T19:49:04.574Z,93.88
2022-10-01T19:51:43.886Z,93.42
2022-10-01T19:54:19.920Z,94.03
2022-10-01T19:56:54.635Z,93.04
2022-10-01T19:59:22.321Z,96.22
2022-10-01T20:01:59.228Z,97.30
2022-10-01T20:04:30.624Z,97.79
2022-10-01T20:07:10.247Z,97.68
2022-10-01T20:10:05.774Z,97.00
2022-10-01T20:12:55.959Z,96.74
2022-10-01T20:15:42.650Z,94.82
2022-10-01T20:18:27.790Z,94.64
2022-10-01T20:21:14.600Z,94.34
2022-10-01T20:23:53.913Z,93.51
2022-10-01T20:26:45.492Z,93.21
2022-10-01T20:29:32.480Z,92.78
2022-10-01T20:32:23.646Z,92.32
2022-10-01T20:35:06.218Z,92.21
2022-10-01T20:37:40.081Z,91.89
2022-10-01T20:40:25.252Z,91.79
2022-10-01T20:43:22.056Z,92.41
2022-10-01T20:45:52.764Z,92.80
2022-10-01T20:48:23.302Z,94.13
2022-10-01T20:50:54.196Z,93.08
2022-10-01T20:53:31.054Z,92.60
2022-10-01T20:56:08.243Z,91.46
2022-10-01T20:58:44.693Z,92.95
2022-10-01T21:01:20.759Z,93.10
2022-10-01T21:03:57.610Z,93.27
2022-10-01T21:06:40.037Z,92.52
2022-10-01T21:09:14.640Z,94.99
2022-10-01T21:11:48.050Z,96.59
2022-10-01T21:14:41.121Z,98.72
2022-10-01T21:17:24.911Z,98.77
2022-10-01T21:20:02.307Z,98.73
2022-10-01T21:23:03.345Z,99.28
2022-10-01T21:25:50.941Z,99.48
2022-10-01T21:28:52.844Z,100.00
2022-10-01T21:31:42.617Z,100.00
2022-10-01T21:34:30.078Z,100.00
2022-10-01T21:37:40.679Z,100.00
2022-10-01T21:40:43.279Z,100.00
2022-10-01T21:43:32.434Z,100.00
2022-10-01T21:46:23.548Z,100.00
2022-10-01T21:49:19.540Z,89.96
2022-10-01T21:51:58.671Z,91.72
2022-10-01T21:55:05.503Z,93.98
2022-10-01T21:57:43.497Z,92.22
2022-10-01T22:00:21.968Z,89.47
2022-10-01T22:03:17.499Z,83.69
2022-10-01T22:06:13.027Z,87.25
2022-10-01T22:08:59.904Z,87.04
2022-10-01T22:11:32.034Z,87.53
2022-10-01T22:14:03.774Z,87.67
2022-10-01T22:16:40.062Z,85.38
2022-10-01T22:19:17.476Z,89.87
2022-10-01T22:21:48.144Z,91.70
2022-10-01T22:24:33.940Z,93.13
2022-10-01T22:27:16.583Z,91.35
2022-10-01T22:30:08.245Z,92.48
2022-10-01T22:32:59.795Z,96.79
2022-10-01T22:35:35.518Z,97.97
2022-10-01T22:38:11.528Z,100.00
2022-10-01T22:40:46.021Z,100.00
2022-10-01T22:43:14.579Z,100.00
2022-10-01T22:45:48.939Z,100.00
2022-10-01T22:48:50.355Z,100.00
2022-10-01T22:51:23.862Z,100.00
2022-10-01T22:54:30.263Z,100.00
2022-10-01T22:57:07.959Z,100.00
2022-10-01T23:00:06.524Z,100.00
2022-10-01T23:02:45.736Z,100.00
2022-10-01T23:05:56.141Z,100.00
2022-10-01T23:08:40.641Z,100.00
2022-10-01T23:11:29.187Z,100.00
2022-10-01T23:14:01.295Z,100.00
2022-10-01T23:16:59.148Z,100.00
2022-10-01T23:19:33.215Z,100.00
2022-10-01T23:22:01.271Z,100.00
2022-10-01T23:24:35.679Z,99.81
2022-10-01T23:27:21.766Z,99.18
2022-10-01T23:30:08.200Z,100.00
2022-10-01T23:33:17.633Z,100.00
2022-10-01T23:36:06.543Z,99.18
2022-10-01T23:38:46.915Z,98.55
2022-10-01T23:41:25.026Z,99.73
2022-10-01T23:43:55.775Z,98.99
2022-10-01T23:46:33.244Z,99.35
2022-10-01T23:49:15.537Z,100.00
2022-10-01T23:51:53.038Z,100.00
2022-10-01T23:55:18.381Z,99.70
2022-10-01T23:57:48.588Z,98.17
